< < Back
Terminal Aerodrome Forecast


Current Version              Previous Versions:   1  2  3  4  5  6  7  8  9  

Terminal Aerodrome Forecast

079
FTUS44 KMRX 281720
TAFTYS
TAF
KTYS 281720Z 2818/2918 25004KT P6SM SKC=

Latest METAR

647
SAUS80 KWBC 281800
MTRTYS
METAR KTYS 281753Z 00000KT 10SM FEW180 03/M06 A3036 RMK AO2 SLP287
T00281061 10028 21044 58026


USA.gov is the U.S. government's official web portal to all federal, state and local government web resources and services.